CYNR

METAR CYNR 270600Z AUTO 17004KT 9SM BKN140 16/08 A2965 RMK AO2 SLP039
METAR
LOCATION
CYNR
DATE - TIME
270600Z
WIND
170 TRUE @ 4 KNOTS
VISIBILITY
9SM
RUNWAY VISUAL RANGE
NOT REPORTED
WEATHER
CLOUDINESS
BKN140
TEMP / DEWPOINT
16 ºC / 8 ºC
ALTIMETER
29.65 in. Hg
RECENT WEATHER
NOT REPORTED
WIND SHEAR
NOT REPORTED
REMARKS
RMK AO2 SLP039
SEA LEVEL PRESSURE: hPa

CYNR

METAR CYNR 270500Z AUTO 18005KT 9SM FEW210 16/08 A2966 RMK AO2 SLP044
METAR
LOCATION
CYNR
DATE - TIME
270500Z
WIND
180 TRUE @ 5 KNOTS
VISIBILITY
9SM
RUNWAY VISUAL RANGE
NOT REPORTED
WEATHER
CLOUDINESS
FEW210
TEMP / DEWPOINT
16 ºC / 8 ºC
ALTIMETER
29.66 in. Hg
RECENT WEATHER
NOT REPORTED
WIND SHEAR
NOT REPORTED
REMARKS
RMK AO2 SLP044
SEA LEVEL PRESSURE: hPa

CYNR

METAR CYNR 270400Z AUTO 19007KT 9SM CLR 17/07 A2967 RMK AO2 SLP048
METAR
LOCATION
CYNR
DATE - TIME
270400Z
WIND
190 TRUE @ 7 KNOTS
VISIBILITY
9SM
RUNWAY VISUAL RANGE
NOT REPORTED
WEATHER
CLOUDINESS
CLR
TEMP / DEWPOINT
17 ºC / 7 ºC
ALTIMETER
29.67 in. Hg
RECENT WEATHER
NOT REPORTED
WIND SHEAR
NOT REPORTED
REMARKS
RMK AO2 SLP048
SEA LEVEL PRESSURE: hPa

Your time UTC time
 
 
Weather data provided by AXYS Technologies Inc., www.axystechnologies.com
 
Station History